SKCG/CTG METAR and TAF weather

Enter ICAO airport designator
Station Type Date Time Source
SKCG METAR 2021/06/24 06:00 UTC NOAA

SKCG 240600Z 240600Z 36003KT 9999 FEW017 26/24 Q1011 RMK A2985


Station Type Date Time Source
SKCG Decoded METAR 2021/06/24 06:00 UTC NOAA

Cartagena / Rafael Nunez, Colombia (SKCG) 10-27N 075-31W 12M
Jun 24, 2021 - 02:00 AM EDT / 2021.06.24 0600 UTC
Wind: from the N (360 degrees) at 3 MPH (3 KT):0
Visibility: greater than 7 mile(s):0
Sky conditions: mostly clear
Temperature: 78 F (26 C)
Dew Point: 75 F (24 C)
Relative Humidity: 88%
Pressure (altimeter): 29.85 in. Hg (1011 hPa)
ob: SKCG 240600Z 240600Z 36003KT 9999 FEW017 26/24 Q1011 RMK A2985
cycle: 6

Station Type Date Time Source
SKCG TAF 2021/06/24 06:46 UTC NOAA

TAF SKCG 240430Z 2406/2506 04004KT 9999 FEW017
TEMPO 2419/2423 DZRA SCT012CB BKN080 TX32/2418Z TN26/2411Z

Example: see airport list